Time;durP1;ratioP1;P1;durP2;ratioP2;P2;SDS_P1;SDS_P2;PMS_P1;PMS_P2;Temp;Humidity;BMP_temperature;BMP_pressure;BME280_temperature;BME280_humidity;BME280_pressure;Samples;Min_cycle;Max_cycle;Signal;HPM_P1;HPM_P2
2023/05/16 00:00:07;;;;;;;;;;;;;;;19.23;44.27;100626.67;103728;1288;62189;-83
2023/05/16 00:02:38;;;;;;;;;;;;;;;19.23;44.36;100628.81;103618;1285;63461;-82
2023/05/16 00:05:06;;;;;;;;;;;;;;;19.23;44.22;100632.02;103724;1285;73403;-83
2023/05/16 00:07:32;;;;;;;;;;;;;;;19.23;44.24;100636.13;103454;1286;75344;-83
2023/05/16 00:09:58;;;;;;;;;;;;;;;19.23;44.14;100636.67;103668;1285;62561;-83
2023/05/16 00:12:27;;;;;;;;;;;;;;;19.23;44.32;100639.54;103493;1287;62189;-83
2023/05/16 00:14:52;;;;;;;;;;;;;;;19.23;44.25;100636.33;103471;1284;73451;-82
2023/05/16 00:17:21;;;;;;;;;;;;;;;19.23;44.37;100637.40;103679;1288;75143;-83
2023/05/16 00:19:52;;;;;;;;;;;;;;;19.22;44.23;100640.65;103533;1290;62149;-83
2023/05/16 00:22:21;;;;;;;;;;;;;;;19.22;44.17;100646.88;103579;1284;62268;-83
2023/05/16 00:24:48;;;;;;;;;;;;;;;19.22;44.13;100648.65;103568;1284;73585;-83
2023/05/16 00:27:14;;;;;;;;;;;;;;;19.23;44.19;100648.45;103466;1285;63326;-83
2023/05/16 00:29:42;;;;;;;;;;;;;;;19.23;44.04;100645.98;103609;1288;62614;-83
2023/05/16 00:32:08;;;;;;;;;;;;;;;19.22;44.15;100638.15;103622;1285;62198;-82
2023/05/16 00:34:39;;;;;;;;;;;;;;;19.22;44.25;100631.70;103695;1285;72574;-82
2023/05/16 00:37:10;;;;;;;;;;;;;;;19.22;44.28;100616.73;103634;1284;76274;-82
2023/05/16 00:39:39;;;;;;;;;;;;;;;19.22;44.20;100604.44;103657;1285;62202;-83
2023/05/16 00:42:29;;;;;;;;;;;;;;;19.22;44.11;100596.96;103523;1285;62287;-84
2023/05/16 00:44:54;;;;;;;;;;;;;;;19.22;44.23;100589.98;103602;1285;73655;-83
2023/05/16 00:47:22;;;;;;;;;;;;;;;19.22;44.03;100569.12;103559;1284;75739;-83
2023/05/16 00:49:51;;;;;;;;;;;;;;;19.22;44.19;100558.25;103591;1285;62105;-82
2023/05/16 00:52:16;;;;;;;;;;;;;;;19.22;44.24;100562.52;103540;1285;62246;-82
2023/05/16 00:54:48;;;;;;;;;;;;;;;19.22;44.21;100589.45;103496;1285;72524;-83
2023/05/16 00:57:19;;;;;;;;;;;;;;;19.22;44.12;100621.59;103596;1285;76377;-82
2023/05/16 00:59:45;;;;;;;;;;;;;;;19.22;44.08;100633.37;103541;1288;62114;-83
2023/05/16 01:02:11;;;;;;;;;;;;;;;19.21;44.06;100617.17;103561;1288;62178;-82
2023/05/16 01:04:40;;;;;;;;;;;;;;;19.21;44.20;100609.85;103410;1291;72403;-83
2023/05/16 01:07:13;;;;;;;;;;;;;;;19.21;44.01;100626.42;103343;1288;75258;-83
2023/05/16 01:09:39;;;;;;;;;;;;;;;19.22;44.06;100637.27;103493;1291;62232;-83
2023/05/16 01:12:05;;;;;;;;;;;;;;;19.21;44.02;100642.13;103116;1288;62222;-82
2023/05/16 01:14:42;;;;;;;;;;;;;;;19.21;43.94;100638.75;103368;1289;73532;-84
2023/05/16 01:17:13;;;;;;;;;;;;;;;19.21;44.18;100624.30;103377;1287;75078;-83
2023/05/16 01:19:59;;;;;;;;;;;;;;;19.22;43.88;100607.32;103437;1288;62169;-82
2023/05/16 01:22:42;;;;;;;;;;;;;;;19.22;44.01;100597.70;103455;1291;62294;-82
2023/05/16 01:25:26;;;;;;;;;;;;;;;19.21;44.06;100599.31;103305;1288;71841;-83
2023/05/16 01:27:57;;;;;;;;;;;;;;;19.21;44.06;100615.20;103408;1288;76355;-83
2023/05/16 01:30:22;;;;;;;;;;;;;;;19.21;43.87;100645.55;103287;1288;62258;-83
2023/05/16 01:32:51;;;;;;;;;;;;;;;19.21;44.16;100680.53;103432;1292;62231;-83
2023/05/16 01:35:20;;;;;;;;;;;;;;;19.21;43.87;100693.71;103352;1286;71472;-83
2023/05/16 01:37:53;;;;;;;;;;;;;;;19.21;43.96;100682.48;103750;1286;76562;-82
2023/05/16 01:40:19;;;;;;;;;;;;;;;19.21;44.07;100657.86;103598;1284;62143;-82
2023/05/16 01:42:53;;;;;;;;;;;;;;;19.21;43.92;100634.48;103712;1285;63314;-83
2023/05/16 01:45:22;;;;;;;;;;;;;;;19.21;44.10;100633.25;103659;1288;62137;-83
2023/05/16 01:47:51;;;;;;;;;;;;;;;19.20;44.02;100645.74;103367;1285;75441;-83
2023/05/16 01:50:17;;;;;;;;;;;;;;;19.20;43.90;100661.27;103539;1285;62252;-83
2023/05/16 01:52:50;;;;;;;;;;;;;;;19.20;43.94;100664.33;103571;1285;62257;-84
2023/05/16 01:55:23;;;;;;;;;;;;;;;19.20;43.90;100662.70;103609;1291;73302;-82
2023/05/16 01:57:48;;;;;;;;;;;;;;;19.20;44.01;100645.80;103748;1285;76217;-83
2023/05/16 02:00:21;;;;;;;;;;;;;;;19.20;43.91;100645.41;103463;1294;62256;-82
2023/05/16 02:02:47;;;;;;;;;;;;;;;19.20;43.94;100641.52;103586;1285;63272;-82
2023/05/16 02:05:13;;;;;;;;;;;;;;;19.20;44.08;100642.21;103576;1285;62689;-82
2023/05/16 02:07:40;;;;;;;;;;;;;;;19.20;44.03;100643.09;103588;1285;62168;-83
2023/05/16 02:10:15;;;;;;;;;;;;;;;19.20;43.99;100630.80;103629;1285;62123;-82
2023/05/16 02:12:40;;;;;;;;;;;;;;;19.20;43.94;100621.35;103447;1285;62133;-82
2023/05/16 02:15:06;;;;;;;;;;;;;;;19.19;43.85;100627.27;103529;1285;62204;-83
2023/05/16 02:17:32;;;;;;;;;;;;;;;19.20;43.85;100631.55;103546;1291;62509;-83
2023/05/16 02:20:07;;;;;;;;;;;;;;;19.20;43.84;100643.64;103650;1286;62197;-82
2023/05/16 02:22:42;;;;;;;;;;;;;;;19.19;43.87;100648.16;103526;1285;62209;-83
2023/05/16 02:25:13;;;;;;;;;;;;;;;19.20;43.89;100641.17;103656;1285;73369;-82
2023/05/16 02:27:42;;;;;;;;;;;;;;;19.19;43.97;100627.80;103628;1286;76462;-83
2023/05/16 02:30:08;;;;;;;;;;;;;;;19.19;43.98;100628.16;103487;1291;62127;-83
2023/05/16 02:32:39;;;;;;;;;;;;;;;19.19;43.90;100628.52;103526;1284;62058;-82
2023/05/16 02:35:06;;;;;;;;;;;;;;;19.20;43.93;100627.97;103525;1291;73479;-83
2023/05/16 02:37:37;;;;;;;;;;;;;;;19.19;43.89;100622.83;103428;1288;76426;-82
2023/05/16 02:40:06;;;;;;;;;;;;;;;19.19;43.86;100618.89;103405;1288;62293;-84
2023/05/16 02:42:35;;;;;;;;;;;;;;;19.19;43.89;100622.10;103546;1288;62232;-83
2023/05/16 02:45:00;;;;;;;;;;;;;;;19.19;44.04;100617.98;103406;1288;72406;-83
2023/05/16 02:47:26;;;;;;;;;;;;;;;19.19;43.91;100605.90;103464;1294;62218;-82
2023/05/16 02:49:52;;;;;;;;;;;;;;;19.19;43.91;100607.14;103349;1288;62626;-83
2023/05/16 02:52:20;;;;;;;;;;;;;;;19.19;43.94;100598.04;103392;1288;62266;-83
2023/05/16 02:54:46;;;;;;;;;;;;;;;19.19;43.99;100594.10;103440;1288;62710;-83
2023/05/16 02:57:21;;;;;;;;;;;;;;;19.19;43.93;100599.83;103339;1289;75552;-84
2023/05/16 02:59:46;;;;;;;;;;;;;;;19.19;43.96;100597.70;103481;1292;62195;-83
2023/05/16 03:02:15;;;;;;;;;;;;;;;19.18;43.83;100588.44;103399;1288;62213;-82
2023/05/16 03:04:40;;;;;;;;;;;;;;;19.19;43.86;100582.55;103317;1294;72477;-82
2023/05/16 03:07:10;;;;;;;;;;;;;;;19.19;43.89;100588.26;103360;1288;76190;-82
2023/05/16 03:09:39;;;;;;;;;;;;;;;19.19;44.03;100593.95;103632;1285;62432;-82
2023/05/16 03:12:04;;;;;;;;;;;;;;;19.18;43.95;100596.31;103731;1285;62104;-83
2023/05/16 03:14:30;;;;;;;;;;;;;;;19.19;43.98;100586.83;103434;1288;62260;-82
2023/05/16 03:16:58;;;;;;;;;;;;;;;19.18;43.99;100571.69;103441;1292;63634;-82
2023/05/16 03:19:26;;;;;;;;;;;;;;;19.19;43.78;100565.08;103175;1289;62118;-83
2023/05/16 03:21:52;;;;;;;;;;;;;;;19.19;43.86;100557.19;103400;1291;63298;-83
2023/05/16 03:24:20;;;;;;;;;;;;;;;19.18;43.90;100558.12;103183;1288;62140;-82
2023/05/16 03:26:47;;;;;;;;;;;;;;;19.19;43.86;100577.37;103457;1288;75008;-83
2023/05/16 03:29:15;;;;;;;;;;;;;;;19.19;43.96;100595.91;103420;1289;62292;-84
2023/05/16 03:31:44;;;;;;;;;;;;;;;19.19;44.04;100603.23;103530;1292;62156;-83
2023/05/16 03:34:18;;;;;;;;;;;;;;;19.19;43.92;100608.77;103353;1289;73756;-82
2023/05/16 03:36:47;;;;;;;;;;;;;;;19.19;44.07;100600.75;103304;1288;75078;-83
2023/05/16 03:39:15;;;;;;;;;;;;;;;19.19;44.04;100581.11;103443;1288;63285;-82
2023/05/16 03:41:43;;;;;;;;;;;;;;;19.19;43.96;100589.86;103358;1289;62198;-82
2023/05/16 03:44:11;;;;;;;;;;;;;;;19.18;44.00;100601.66;103384;1291;73446;-83
2023/05/16 03:46:36;;;;;;;;;;;;;;;19.19;43.97;100609.11;103680;1284;76690;-83
2023/05/16 03:49:05;;;;;;;;;;;;;;;19.19;43.91;100619.27;103621;1285;62280;-84
2023/05/16 03:51:32;;;;;;;;;;;;;;;19.19;43.89;100612.83;103609;1285;62268;-84
2023/05/16 03:54:00;;;;;;;;;;;;;;;19.19;43.98;100614.82;103680;1288;62298;-83
2023/05/16 03:56:26;;;;;;;;;;;;;;;19.19;43.93;100614.80;103440;1293;75132;-83
2023/05/16 03:58:52;;;;;;;;;;;;;;;19.19;43.91;100606.58;103610;1291;62277;-82
2023/05/16 04:01:21;;;;;;;;;;;;;;;19.19;43.99;100593.02;103695;1291;62199;-83
2023/05/16 04:03:47;;;;;;;;;;;;;;;19.19;43.97;100587.68;103521;1286;73660;-82
2023/05/16 04:06:16;;;;;;;;;;;;;;;19.19;43.98;100582.13;103601;1285;62296;-83
2023/05/16 04:08:48;;;;;;;;;;;;;;;19.19;43.82;100583.03;103714;1285;63308;-83
2023/05/16 04:11:17;;;;;;;;;;;;;;;19.19;43.87;100580.71;103681;1285;62168;-82
2023/05/16 04:13:46;;;;;;;;;;;;;;;19.18;43.99;100570.11;103663;1286;72260;-83
2023/05/16 04:16:12;;;;;;;;;;;;;;;19.19;43.99;100564.54;104153;1285;62117;-81
2023/05/16 04:18:38;;;;;;;;;;;;;;;19.18;44.14;100556.34;104136;1288;62266;-82
2023/05/16 04:21:04;;;;;;;;;;;;;;;19.16;43.89;100555.59;104129;1285;62000;-82
2023/05/16 04:23:32;;;;;;;;;;;;;;;19.09;44.14;100563.23;104013;1284;62122;-82
2023/05/16 04:25:58;;;;;;;;;;;;;;;19.06;44.03;100576.25;103890;1289;62234;-82
2023/05/16 04:28:24;;;;;;;;;;;;;;;19.06;44.11;100594.25;104131;1285;62209;-81
2023/05/16 04:30:50;;;;;;;;;;;;;;;19.07;44.20;100613.64;104325;1290;62278;-81
2023/05/16 04:33:15;;;;;;;;;;;;;;;19.07;44.25;100635.19;104223;1288;62119;-82
2023/05/16 04:35:43;;;;;;;;;;;;;;;19.05;44.17;100628.02;104114;1285;63382;-83
2023/05/16 04:38:11;;;;;;;;;;;;;;;19.01;44.29;100625.79;103333;1291;62153;-82
2023/05/16 04:40:37;;;;;;;;;;;;;;;18.96;44.32;100637.53;103904;1290;62410;-82
2023/05/16 04:43:03;;;;;;;;;;;;;;;18.91;44.24;100627.69;103841;1290;62168;-82
2023/05/16 04:45:29;;;;;;;;;;;;;;;18.80;44.31;100630.12;104126;1290;63398;-82
2023/05/16 04:47:55;;;;;;;;;;;;;;;18.78;44.44;100625.46;104185;1289;62309;-83
2023/05/16 04:50:21;;;;;;;;;;;;;;;18.75;44.43;100611.38;103951;1290;62096;-82
2023/05/16 04:52:48;;;;;;;;;;;;;;;18.66;44.62;100614.79;104613;1291;62229;-82
2023/05/16 04:55:13;;;;;;;;;;;;;;;18.60;44.72;100606.30;104651;1289;72503;-82
2023/05/16 04:57:41;;;;;;;;;;;;;;;18.56;44.83;100594.23;104902;1288;60813;-82
2023/05/16 05:00:09;;;;;;;;;;;;;;;18.55;44.92;100589.52;104875;1290;62150;-83
2023/05/16 05:02:34;;;;;;;;;;;;;;;18.49;44.94;100589.17;105074;1289;60460;-82
2023/05/16 05:05:01;;;;;;;;;;;;;;;18.38;45.20;100579.48;105036;1291;61726;-82
2023/05/16 05:07:28;;;;;;;;;;;;;;;18.37;45.30;100577.23;104990;1292;62137;-81
2023/05/16 05:09:54;;;;;;;;;;;;;;;18.42;45.39;100569.30;104746;1291;62071;-82
2023/05/16 05:12:21;;;;;;;;;;;;;;;18.35;45.38;100567.75;104914;1288;62139;-82
2023/05/16 05:14:47;;;;;;;;;;;;;;;18.37;45.37;100563.38;104928;1291;62234;-82
2023/05/16 05:17:12;;;;;;;;;;;;;;;18.41;45.46;100564.19;104799;1291;62317;-81
2023/05/16 05:19:38;;;;;;;;;;;;;;;18.47;45.43;100564.01;104564;1291;62143;-82
2023/05/16 05:22:03;;;;;;;;;;;;;;;18.44;45.39;100559.70;104904;1293;60513;-82
2023/05/16 05:24:29;;;;;;;;;;;;;;;18.42;45.47;100551.29;104913;1296;62303;-81
2023/05/16 05:26:55;;;;;;;;;;;;;;;18.47;45.60;100543.29;104810;1290;71752;-82
2023/05/16 05:29:21;;;;;;;;;;;;;;;18.52;45.55;100538.38;104654;1291;62598;-81
2023/05/16 05:31:47;;;;;;;;;;;;;;;18.57;45.55;100548.23;104540;1289;62269;-82
2023/05/16 05:34:13;;;;;;;;;;;;;;;18.60;45.59;100562.07;104449;1289;62381;-81
2023/05/16 05:36:39;;;;;;;;;;;;;;;18.62;45.47;100560.55;104715;1288;62167;-81
2023/05/16 05:39:05;;;;;;;;;;;;;;;18.65;45.55;100558.77;104927;1286;62100;-81
2023/05/16 05:41:30;;;;;;;;;;;;;;;18.70;45.39;100569.83;105431;1288;62137;-82
2023/05/16 05:43:57;;;;;;;;;;;;;;;18.74;45.38;100585.95;105095;1285;62196;-81
2023/05/16 05:46:23;;;;;;;;;;;;;;;18.72;45.41;100593.92;104826;1287;62018;-81
2023/05/16 05:48:48;;;;;;;;;;;;;;;18.70;45.38;100596.35;105007;1291;62201;-82
2023/05/16 05:51:14;;;;;;;;;;;;;;;18.69;45.38;100597.85;104625;1286;62113;-82
2023/05/16 05:53:40;;;;;;;;;;;;;;;18.69;45.41;100601.98;105375;1288;62278;-82
2023/05/16 05:56:08;;;;;;;;;;;;;;;18.57;45.39;100607.89;105144;1285;62124;-82
2023/05/16 05:58:35;;;;;;;;;;;;;;;18.42;45.30;100604.59;105475;1286;60636;-81
2023/05/16 06:01:01;;;;;;;;;;;;;;;18.31;45.55;100601.85;105571;1290;61939;-82
2023/05/16 06:03:26;;;;;;;;;;;;;;;18.32;45.78;100595.90;105642;1286;62123;-82
2023/05/16 06:05:52;;;;;;;;;;;;;;;18.35;45.99;100597.84;105735;1288;62148;-82
2023/05/16 06:08:17;;;;;;;;;;;;;;;18.42;45.80;100595.65;105631;1285;62111;-82
2023/05/16 06:10:43;;;;;;;;;;;;;;;18.49;45.93;100599.34;105424;1285;62140;-82
2023/05/16 06:13:09;;;;;;;;;;;;;;;18.51;45.82;100606.09;105254;1285;60559;-82
2023/05/16 06:15:34;;;;;;;;;;;;;;;18.47;45.70;100608.02;105102;1286;60923;-82
2023/05/16 06:18:00;;;;;;;;;;;;;;;18.43;45.76;100601.98;105112;1286;60395;-82
2023/05/16 06:20:26;;;;;;;;;;;;;;;18.41;45.89;100616.88;104993;1289;62249;-82
2023/05/16 06:22:52;;;;;;;;;;;;;;;18.42;45.86;100617.89;105186;1289;62005;-81
2023/05/16 06:25:18;;;;;;;;;;;;;;;18.44;45.79;100607.10;105157;1288;62069;-82
2023/05/16 06:27:44;;;;;;;;;;;;;;;18.41;45.80;100605.71;104826;1286;62320;-82
2023/05/16 06:30:10;;;;;;;;;;;;;;;18.37;45.77;100597.91;104945;1285;62191;-82
2023/05/16 06:32:36;;;;;;;;;;;;;;;18.39;45.77;100604.71;104813;1290;62182;-82
2023/05/16 06:35:02;;;;;;;;;;;;;;;18.33;45.73;100599.74;104863;1285;62192;-82
2023/05/16 06:37:28;;;;;;;;;;;;;;;18.32;45.80;100594.69;104728;1285;62892;-82
2023/05/16 06:39:53;;;;;;;;;;;;;;;18.31;45.79;100595.61;104488;1288;62171;-83
2023/05/16 06:42:19;;;;;;;;;;;;;;;18.35;46.01;100594.09;104910;1286;62337;-83
2023/05/16 06:44:45;;;;;;;;;;;;;;;18.41;45.84;100593.04;104763;1291;73268;-83
2023/05/16 06:47:11;;;;;;;;;;;;;;;18.39;45.74;100589.77;104740;1289;62224;-83
2023/05/16 06:49:36;;;;;;;;;;;;;;;18.39;45.77;100589.57;104637;1285;61460;-83
2023/05/16 06:52:02;;;;;;;;;;;;;;;18.40;45.83;100587.23;105108;1286;62105;-83
2023/05/16 06:54:27;;;;;;;;;;;;;;;18.33;45.90;100586.39;105411;1291;62066;-83
2023/05/16 06:56:53;;;;;;;;;;;;;;;18.32;45.86;100585.27;105603;1291;60988;-82
2023/05/16 06:59:18;;;;;;;;;;;;;;;18.31;45.95;100589.60;105476;1291;62154;-83
2023/05/16 07:01:44;;;;;;;;;;;;;;;18.35;46.07;100597.50;105248;1291;60900;-82
2023/05/16 07:04:10;;;;;;;;;;;;;;;18.42;46.20;100594.39;105032;1285;62179;-82
2023/05/16 07:06:36;;;;;;;;;;;;;;;18.47;46.04;100593.93;104793;1291;608438;-82
2023/05/16 07:09:02;;;;;;;;;;;;;;;18.52;46.04;100587.33;105320;1286;60776;-82
2023/05/16 07:11:27;;;;;;;;;;;;;;;18.56;46.04;100584.80;105293;1292;62092;-83
2023/05/16 07:13:54;;;;;;;;;;;;;;;18.59;46.25;100587.95;105452;1289;60674;-83
2023/05/16 07:16:21;;;;;;;;;;;;;;;18.64;46.05;100583.08;105161;1289;62004;-82
2023/05/16 07:18:46;;;;;;;;;;;;;;;18.62;46.02;100586.38;105432;1293;62245;-83
2023/05/16 07:21:11;;;;;;;;;;;;;;;18.64;46.02;100589.48;105270;1289;62530;-83
2023/05/16 07:23:37;;;;;;;;;;;;;;;18.68;46.06;100592.79;105142;1289;62223;-83
2023/05/16 07:26:02;;;;;;;;;;;;;;;18.73;46.03;100600.09;105093;1289;62124;-82
2023/05/16 07:28:28;;;;;;;;;;;;;;;18.73;45.86;100603.48;105247;1289;61291;-82
2023/05/16 07:30:54;;;;;;;;;;;;;;;18.73;45.79;100604.90;104690;1294;62119;-82
2023/05/16 07:33:19;;;;;;;;;;;;;;;18.76;45.99;100597.63;104915;1292;62118;-81
2023/05/16 07:35:45;;;;;;;;;;;;;;;18.82;45.88;100594.52;104877;1293;62154;-82
2023/05/16 07:38:10;;;;;;;;;;;;;;;18.88;45.77;100591.12;104917;1289;62209;-82
2023/05/16 07:40:36;;;;;;;;;;;;;;;18.94;45.86;100595.41;104847;1289;60653;-82
2023/05/16 07:43:01;;;;;;;;;;;;;;;18.99;45.92;100593.10;105053;1294;62246;-82
2023/05/16 07:45:27;;;;;;;;;;;;;;;19.05;45.77;100589.17;105194;1286;62201;-83
2023/05/16 07:47:53;;;;;;;;;;;;;;;19.09;45.89;100590.86;105030;1286;62567;-82
2023/05/16 07:50:18;;;;;;;;;;;;;;;19.10;45.78;100587.36;104955;1286;62809;-82
2023/05/16 07:52:44;;;;;;;;;;;;;;;19.13;45.71;100591.83;104996;1290;62252;-83
2023/05/16 07:55:10;;;;;;;;;;;;;;;19.16;45.75;100593.21;104959;1286;72398;-82
2023/05/16 07:57:36;;;;;;;;;;;;;;;19.18;45.82;100588.83;104843;1291;62168;-82
2023/05/16 08:00:03;;;;;;;;;;;;;;;19.20;45.84;100589.77;105126;1291;62316;-82
2023/05/16 08:02:42;;;;;;;;;;;;;;;;;;;;;
2023/05/16 08:05:08;;;;;;;;;;;;;;;19.25;45.78;100589.39;105392;1288;72383;-82
2023/05/16 08:07:34;;;;;;;;;;;;;;;19.28;45.59;100589.80;104965;1289;62368;-82
2023/05/16 08:10:00;;;;;;;;;;;;;;;19.29;45.63;100594.55;104604;1290;64802;-82
2023/05/16 08:12:26;;;;;;;;;;;;;;;19.29;45.63;100597.23;104902;1294;61932;-83
2023/05/16 08:14:51;;;;;;;;;;;;;;;19.30;45.64;100597.14;104923;1293;62106;-81
2023/05/16 08:17:17;;;;;;;;;;;;;;;19.32;45.56;100602.35;105024;1289;62283;-83
2023/05/16 08:19:42;;;;;;;;;;;;;;;19.34;45.62;100599.56;104939;1289;62163;-83
2023/05/16 08:22:08;;;;;;;;;;;;;;;19.35;45.68;100600.00;105123;1289;63332;-83
2023/05/16 08:24:34;;;;;;;;;;;;;;;19.37;45.76;100593.11;105159;1292;63232;-82
2023/05/16 08:26:59;;;;;;;;;;;;;;;19.38;45.72;100594.48;104970;1288;62152;-83
2023/05/16 08:29:25;;;;;;;;;;;;;;;19.39;45.65;100592.98;104786;1294;62156;-83
2023/05/16 08:31:51;;;;;;;;;;;;;;;19.40;45.72;100597.86;105051;1290;60753;-83
2023/05/16 08:34:17;;;;;;;;;;;;;;;19.41;45.76;100599.98;105334;1290;62096;-83
2023/05/16 08:36:42;;;;;;;;;;;;;;;19.41;45.71;100603.70;105623;1287;62210;-81
2023/05/16 08:39:10;;;;;;;;;;;;;;;19.42;45.67;100605.05;105377;1285;62099;-82
2023/05/16 08:41:36;;;;;;;;;;;;;;;19.42;45.74;100603.07;105288;1286;76318;-82
2023/05/16 08:44:02;;;;;;;;;;;;;;;19.42;45.62;100603.61;104837;1285;62238;-82
2023/05/16 08:46:28;;;;;;;;;;;;;;;19.43;45.85;100608.92;106267;1285;60001;-82
2023/05/16 08:48:56;;;;;;;;;;;;;;;19.45;45.72;100610.61;104907;1286;60911;-82
2023/05/16 08:51:21;;;;;;;;;;;;;;;19.46;45.60;100605.69;105058;1290;62087;-82
2023/05/16 08:53:49;;;;;;;;;;;;;;;19.48;45.61;100601.83;105011;1289;60274;-82
2023/05/16 08:56:16;;;;;;;;;;;;;;;19.50;45.57;100600.64;105143;1285;62111;-83
2023/05/16 08:59:07;;;;;;;;;;;;;;;19.51;45.52;100603.77;105154;1284;62094;-82
2023/05/16 09:01:35;;;;;;;;;;;;;;;19.55;45.56;100605.27;104574;1293;75237;-82
2023/05/16 09:04:02;;;;;;;;;;;;;;;19.60;45.57;100604.74;104752;1293;62138;-83
2023/05/16 09:06:30;;;;;;;;;;;;;;;19.66;45.72;100605.11;104505;1297;62161;-82
2023/05/16 09:08:55;;;;;;;;;;;;;;;19.72;45.63;100607.52;104839;1293;72605;-82
2023/05/16 09:11:21;;;;;;;;;;;;;;;19.75;45.54;100604.63;104431;1294;62199;-83
2023/05/16 09:13:47;;;;;;;;;;;;;;;19.76;45.19;100596.67;104421;1292;61122;-83
2023/05/16 09:16:13;;;;;;;;;;;;;;;19.76;45.41;100600.23;105646;1293;60027;-83
2023/05/16 09:18:39;;;;;;;;;;;;;;;19.78;45.35;100600.85;105676;1293;60293;-82
2023/05/16 09:21:05;;;;;;;;;;;;;;;19.79;45.27;100599.02;105478;1294;62185;-82
2023/05/16 09:23:31;;;;;;;;;;;;;;;19.78;45.34;100601.94;104125;1293;74754;-82
2023/05/16 09:25:56;;;;;;;;;;;;;;;19.78;45.22;100603.02;104250;1292;62143;-82
2023/05/16 09:28:22;;;;;;;;;;;;;;;19.78;45.42;100603.21;104103;1294;63630;-83
2023/05/16 09:30:48;;;;;;;;;;;;;;;19.78;45.36;100605.53;104331;1297;62180;-81
2023/05/16 09:33:13;;;;;;;;;;;;;;;19.78;45.32;100600.35;104174;1297;62346;-80
2023/05/16 09:35:39;;;;;;;;;;;;;;;19.77;45.35;100602.89;104281;1293;75023;-82
2023/05/16 09:38:04;;;;;;;;;;;;;;;19.78;45.39;100599.42;104299;1285;62158;-83
2023/05/16 09:40:30;;;;;;;;;;;;;;;19.80;45.19;100596.09;104812;1286;62568;-82
2023/05/16 09:43:03;;;;;;;;;;;;;;;19.82;45.41;100590.63;104755;1285;62293;-82
2023/05/16 09:45:29;;;;;;;;;;;;;;;19.82;45.26;100584.92;104836;1285;76270;-81
2023/05/16 09:47:57;;;;;;;;;;;;;;;19.82;45.32;100581.16;105094;1287;62173;-81
2023/05/16 09:50:23;;;;;;;;;;;;;;;19.82;45.25;100572.95;105299;1285;62153;-82
2023/05/16 09:52:48;;;;;;;;;;;;;;;19.82;45.36;100578.83;105575;1285;60490;-82
2023/05/16 09:55:16;;;;;;;;;;;;;;;19.83;45.25;100573.58;105136;1285;62280;-83
2023/05/16 09:57:41;;;;;;;;;;;;;;;19.84;45.51;100572.27;105132;1285;62204;-81
2023/05/16 10:00:09;;;;;;;;;;;;;;;19.85;45.61;100572.73;105307;1285;60991;-82
2023/05/16 10:02:35;;;;;;;;;;;;;;;19.86;45.61;100561.21;105346;1286;61842;-81
2023/05/16 10:05:00;;;;;;;;;;;;;;;19.92;45.71;100557.24;105570;1285;61916;-81
2023/05/16 10:07:26;;;;;;;;;;;;;;;19.99;45.82;100548.73;105552;1291;62137;-82
2023/05/16 10:09:51;;;;;;;;;;;;;;;20.06;45.68;100549.25;105528;1285;62025;-81
2023/05/16 10:12:19;;;;;;;;;;;;;;;20.15;45.58;100546.72;105829;1285;60554;-81
2023/05/16 10:14:45;;;;;;;;;;;;;;;20.19;45.36;100541.39;105318;1285;72606;-83
2023/05/16 10:17:11;;;;;;;;;;;;;;;20.20;45.52;100542.73;105425;1291;62715;-83
2023/05/16 10:19:37;;;;;;;;;;;;;;;20.21;45.46;100537.85;105497;1286;62220;-82
2023/05/16 10:22:06;;;;;;;;;;;;;;;20.24;45.43;100535.14;105521;1289;60522;-83
2023/05/16 10:24:47;;;;;;;;;;;;;;;20.27;45.41;100530.85;105323;1288;62121;-83
2023/05/16 10:27:12;;;;;;;;;;;;;;;20.30;45.42;100523.98;104893;1286;74471;-83
2023/05/16 10:29:38;;;;;;;;;;;;;;;20.30;45.29;100516.71;105072;1285;62108;-82
2023/05/16 10:32:06;;;;;;;;;;;;;;;20.29;45.32;100517.31;105238;1285;63405;-83
2023/05/16 10:34:31;;;;;;;;;;;;;;;20.29;45.23;100517.15;105450;1285;62175;-82
2023/05/16 10:36:57;;;;;;;;;;;;;;;20.27;45.34;100507.23;105217;1286;62124;-83
2023/05/16 10:39:23;;;;;;;;;;;;;;;20.26;45.39;100506.26;105312;1288;62117;-82
2023/05/16 10:41:48;;;;;;;;;;;;;;;20.26;45.36;100505.70;105000;1286;60622;-83
2023/05/16 10:44:17;;;;;;;;;;;;;;;20.31;45.40;100495.90;104724;1291;62166;-82
2023/05/16 10:46:43;;;;;;;;;;;;;;;20.33;45.24;100498.02;105020;1290;72327;-83
2023/05/16 10:49:19;;;;;;;;;;;;;;;20.33;45.18;100499.09;104530;1286;62166;-84
2023/05/16 10:51:44;;;;;;;;;;;;;;;20.39;45.10;100506.88;104808;1286;60508;-84
2023/05/16 10:54:12;;;;;;;;;;;;;;;20.45;45.20;100510.80;104854;1285;62097;-83
2023/05/16 10:56:37;;;;;;;;;;;;;;;20.48;45.10;100511.98;104918;1286;62115;-82
2023/05/16 10:59:06;;;;;;;;;;;;;;;20.52;44.93;100504.56;104887;1287;62198;-83
2023/05/16 11:01:38;;;;;;;;;;;;;;;20.57;45.02;100498.77;105485;1286;60537;-83
2023/05/16 11:04:10;;;;;;;;;;;;;;;20.65;44.87;100494.45;105429;1289;60780;-81
2023/05/16 11:06:41;;;;;;;;;;;;;;;20.68;44.77;100490.29;105650;1286;73696;-83
2023/05/16 11:09:20;;;;;;;;;;;;;;;20.71;44.84;100484.41;105633;1300;75141;-84
2023/05/16 11:12:02;;;;;;;;;;;;;;;20.69;44.85;100491.49;105670;1288;60824;-83
2023/05/16 11:14:33;;;;;;;;;;;;;;;20.69;44.79;100484.52;105443;1289;62146;-82
2023/05/16 11:16:59;;;;;;;;;;;;;;;20.67;44.83;100486.29;105560;1290;74009;-82
2023/05/16 11:19:31;;;;;;;;;;;;;;;20.64;44.82;100480.40;105564;1290;62312;-82
2023/05/16 11:22:03;;;;;;;;;;;;;;;20.61;44.79;100477.09;105378;1286;60487;-81
2023/05/16 11:24:29;;;;;;;;;;;;;;;20.57;44.98;100469.44;105275;1291;60370;-81
2023/05/16 11:26:55;;;;;;;;;;;;;;;20.59;45.01;100470.38;105390;1286;60523;-81
2023/05/16 11:29:23;;;;;;;;;;;;;;;20.62;44.91;100465.52;104778;1285;60427;-82
2023/05/16 11:31:49;;;;;;;;;;;;;;;20.69;44.98;100466.51;105073;1287;61998;-80
2023/05/16 11:34:17;;;;;;;;;;;;;;;20.73;44.91;100459.00;104967;1286;62166;-81
2023/05/16 11:36:43;;;;;;;;;;;;;;;20.78;44.87;100448.69;104885;1286;73486;-81
2023/05/16 11:39:09;;;;;;;;;;;;;;;20.81;44.85;100444.51;104691;1287;76259;-82
2023/05/16 11:41:34;;;;;;;;;;;;;;;20.80;44.89;100436.70;104475;1290;62227;-82
2023/05/16 11:44:00;;;;;;;;;;;;;;;20.77;44.92;100441.75;104459;1286;62105;-82
2023/05/16 11:46:26;;;;;;;;;;;;;;;20.78;45.01;100437.00;104130;1288;62224;-81
2023/05/16 11:48:52;;;;;;;;;;;;;;;20.82;44.98;100432.98;104529;1288;62217;-82
2023/05/16 11:51:19;;;;;;;;;;;;;;;20.79;44.84;100432.80;104676;1287;61892;-82
2023/05/16 11:53:45;;;;;;;;;;;;;;;20.77;44.90;100432.27;104689;1286;62143;-82
2023/05/16 11:56:11;;;;;;;;;;;;;;;20.80;44.90;100429.73;104620;1286;62754;-82
2023/05/16 11:58:38;;;;;;;;;;;;;;;20.90;44.72;100430.73;104586;1291;62095;-82
2023/05/16 12:01:04;;;;;;;;;;;;;;;20.92;44.78;100431.66;104749;1291;62243;-84
2023/05/16 12:03:34;;;;;;;;;;;;;;;20.91;44.74;100431.90;105096;1288;62143;-82
2023/05/16 12:05:59;;;;;;;;;;;;;;;20.94;44.82;100428.86;104743;1286;62146;-82
2023/05/16 12:08:25;;;;;;;;;;;;;;;20.91;44.68;100426.69;105155;1286;62195;-81
2023/05/16 12:10:52;;;;;;;;;;;;;;;20.86;44.69;100427.95;105368;1292;60567;-81
2023/05/16 12:13:18;;;;;;;;;;;;;;;20.80;44.63;100420.94;105135;1287;62047;-81
2023/05/16 12:15:44;;;;;;;;;;;;;;;20.75;44.70;100424.73;104761;1286;60554;-82
2023/05/16 12:18:10;;;;;;;;;;;;;;;20.79;44.85;100421.23;104667;1291;60112;-81
2023/05/16 12:20:36;;;;;;;;;;;;;;;20.91;44.71;100416.89;104794;1288;62124;-81
2023/05/16 12:23:03;;;;;;;;;;;;;;;20.90;44.53;100417.73;104741;1286;62143;-82
2023/05/16 12:25:32;;;;;;;;;;;;;;;20.84;44.66;100407.58;105032;1286;60134;-81
2023/05/16 12:27:59;;;;;;;;;;;;;;;20.79;44.63;100408.35;104645;1287;60716;-82